Time;durP1;ratioP1;P1;durP2;ratioP2;P2;SDS_P1;SDS_P2;PMS_P1;PMS_P2;Temp;Humidity;BMP_temperature;BMP_pressure;BME280_temperature;BME280_humidity;BME280_pressure;Samples;Min_cycle;Max_cycle;Signal;HPM_P1;HPM_P2
2021/06/13 00:01:30;;;;;;;9.48;5.72;;;;;;;12.81;92.14;99948.48;1689313;83;25876;-80
2021/06/13 00:03:56;;;;;;;10.00;6.03;;;;;;;12.79;92.05;99951.78;1684993;83;25729;-80
2021/06/13 00:06:22;;;;;;;9.90;6.00;;;;;;;12.78;91.80;99951.98;1687654;83;30872;-80
2021/06/13 00:08:48;;;;;;;10.28;6.30;;;;;;;12.76;91.77;99957.41;1688353;83;25196;-81
2021/06/13 00:11:14;;;;;;;10.30;5.67;;;;;;;12.74;91.87;99962.05;1688301;83;34705;-80
2021/06/13 00:13:41;;;;;;;9.85;5.85;;;;;;;12.71;91.63;99964.22;1681277;84;25798;-80
2021/06/13 00:16:07;;;;;;;9.30;5.47;;;;;;;12.70;91.71;99963.92;1687864;84;25602;-81
2021/06/13 00:18:37;;;;;;;12.18;5.50;;;;;;;12.64;91.62;99962.86;1688368;84;25752;-81
2021/06/13 00:21:03;;;;;;;9.23;6.20;;;;;;;12.62;91.43;99964.86;1687220;83;25657;-80
2021/06/13 00:23:30;;;;;;;11.63;5.85;;;;;;;12.59;91.43;99968.66;1694158;83;25724;-81
2021/06/13 00:25:56;;;;;;;10.43;5.45;;;;;;;12.58;91.48;99972.30;1687072;83;26186;-80
2021/06/13 00:28:21;;;;;;;11.68;6.00;;;;;;;12.59;91.22;99970.48;1689443;83;25552;-81
2021/06/13 00:30:47;;;;;;;8.90;5.50;;;;;;;12.55;91.27;99970.52;1681493;83;32923;-80
2021/06/13 00:33:13;;;;;;;11.90;5.53;;;;;;;12.51;91.28;99971.91;1688388;83;31261;-80
2021/06/13 00:35:39;;;;;;;10.50;5.75;;;;;;;12.48;91.25;99968.36;1689351;83;35355;-80
2021/06/13 00:38:06;;;;;;;9.53;5.20;;;;;;;12.48;91.29;99971.78;1688863;83;25755;-80
2021/06/13 00:40:35;;;;;;;14.60;5.42;;;;;;;12.47;91.19;99963.63;1687117;83;26204;-80
2021/06/13 00:43:03;;;;;;;13.50;5.83;;;;;;;12.48;91.12;99963.12;1688498;83;25680;-80
2021/06/13 00:45:30;;;;;;;11.50;5.92;;;;;;;12.46;91.01;99967.73;1683266;83;25638;-80
2021/06/13 00:47:56;;;;;;;8.00;5.00;;;;;;;12.44;91.26;99966.62;1681784;83;25647;-81
2021/06/13 00:50:39;;;;;;;9.53;6.53;;;;;;;12.40;91.21;99967.98;1675778;84;32931;-80
2021/06/13 00:53:08;;;;;;;9.53;5.75;;;;;;;12.39;91.17;99965.86;1677127;83;26362;-81
2021/06/13 00:55:36;;;;;;;12.10;5.75;;;;;;;12.39;91.24;99965.05;1678431;83;26532;-80
2021/06/13 00:58:05;;;;;;;14.25;6.00;;;;;;;12.36;91.43;99968.05;1683412;83;26370;-80
2021/06/13 01:00:31;;;;;;;9.95;6.30;;;;;;;12.36;91.46;99968.86;1677005;84;26000;-79
2021/06/13 01:02:58;;;;;;;10.50;5.35;;;;;;;12.33;91.65;99971.86;1674217;83;25593;-80
2021/06/13 01:05:26;;;;;;;11.97;5.97;;;;;;;12.33;91.48;99973.64;1683869;83;25705;-80
2021/06/13 01:08:13;;;;;;;14.47;6.65;;;;;;;12.32;91.86;99970.72;1674325;83;25696;-80
2021/06/13 01:11:20;;;;;;;12.78;6.55;;;;;;;12.31;91.51;99975.66;1677191;83;25729;-80
2021/06/13 01:14:01;;;;;;;9.25;5.75;;;;;;;12.30;91.96;99980.56;1684232;83;25655;-81
2021/06/13 01:16:33;;;;;;;13.83;7.03;;;;;;;12.30;91.93;99975.32;1682339;84;25670;-81
2021/06/13 01:19:22;;;;;;;12.53;6.58;;;;;;;12.28;91.82;99973.41;1684066;83;25620;-80
2021/06/13 01:22:16;;;;;;;15.38;7.20;;;;;;;12.27;92.19;99973.08;1683656;84;25206;-81
2021/06/13 01:25:17;;;;;;;13.45;6.62;;;;;;;12.24;92.16;99978.19;1677896;83;25689;-81
2021/06/13 01:28:31;;;;;;;15.03;7.05;;;;;;;12.23;92.28;99984.44;1678702;83;26392;-80
2021/06/13 01:30:59;;;;;;;7.90;5.42;;;;;;;12.20;92.45;99987.43;1684203;84;26247;-80
2021/06/13 01:33:26;;;;;;;13.90;6.97;;;;;;;12.19;92.18;99983.17;1672180;84;27075;-79
2021/06/13 01:35:55;;;;;;;14.58;6.60;;;;;;;12.20;92.20;99982.19;1638931;83;25676;-80
2021/06/13 01:38:22;;;;;;;14.30;7.42;;;;;;;12.17;92.01;99976.81;1684426;83;25584;-79
2021/06/13 01:40:52;;;;;;;12.78;6.10;;;;;;;12.17;92.14;99976.81;1677847;84;25720;-80
2021/06/13 01:43:22;;;;;;;;;;;;;;;12.19;92.00;99979.23;1672651;83;25769;-79
2021/06/13 01:45:50;;;;;;;9.33;6.30;;;;;;;12.16;91.75;99976.99;1672762;84;27054;-79
2021/06/13 01:48:16;;;;;;;9.55;5.05;;;;;;;12.13;91.80;99979.48;1683220;84;25208;-80
2021/06/13 01:50:43;;;;;;;12.93;6.08;;;;;;;12.10;91.75;99973.30;1678155;83;25645;-80
2021/06/13 01:53:14;;;;;;;11.63;5.28;;;;;;;12.07;91.65;99975.48;1694461;82;26466;-79
2021/06/13 01:55:48;;;;;;;10.53;6.55;;;;;;;12.05;91.52;99970.92;1676877;83;25716;-79
2021/06/13 01:58:19;;;;;;;11.85;6.15;;;;;;;12.04;91.77;99974.55;1658267;84;26975;-79
2021/06/13 02:00:56;;;;;;;11.60;5.45;;;;;;;12.01;91.44;99969.18;1681810;84;25258;-78
2021/06/13 02:03:22;;;;;;;8.33;5.50;;;;;;;11.98;91.33;99973.48;1679664;83;25233;-79
2021/06/13 02:05:57;;;;;;;12.33;5.20;;;;;;;11.96;91.28;99972.34;1677797;84;25641;-79
2021/06/13 02:08:24;;;;;;;10.72;4.87;;;;;;;11.96;91.09;99975.46;1682496;84;25904;-79
2021/06/13 02:10:55;;;;;;;10.43;5.42;;;;;;;11.94;90.99;99971.70;1680047;83;25948;-79
2021/06/13 02:13:21;;;;;;;9.65;5.30;;;;;;;11.92;90.81;99975.02;1680638;83;25736;-79
2021/06/13 02:15:49;;;;;;;12.63;5.67;;;;;;;11.89;90.76;99984.53;1684707;84;25875;-79
2021/06/13 02:18:17;;;;;;;9.28;4.37;;;;;;;11.85;90.80;99972.78;1684900;83;25679;-79
2021/06/13 02:20:43;;;;;;;11.83;5.10;;;;;;;11.83;90.72;99984.43;1673790;84;25243;-79
2021/06/13 02:23:10;;;;;;;15.58;5.92;;;;;;;11.78;90.55;99987.11;1676240;84;27365;-79
2021/06/13 02:25:37;;;;;;;13.55;4.83;;;;;;;11.76;90.64;99981.23;1684721;83;25210;-79
2021/06/13 02:28:04;;;;;;;12.93;4.70;;;;;;;11.74;90.60;99988.95;1681787;83;25713;-79
2021/06/13 02:30:37;;;;;;;14.60;5.58;;;;;;;11.73;90.47;99989.94;1682053;84;26186;-78
2021/06/13 02:33:07;;;;;;;7.30;4.42;;;;;;;11.71;90.47;99995.37;1683817;83;25289;-79
2021/06/13 02:35:39;;;;;;;11.10;4.37;;;;;;;11.70;90.40;99990.30;1680207;83;25681;-79
2021/06/13 02:38:06;;;;;;;13.30;4.83;;;;;;;11.69;90.63;99998.66;1669052;84;26414;-77
2021/06/13 02:40:32;;;;;;;16.37;4.87;;;;;;;11.67;90.32;100003.25;1682550;83;25606;-78
2021/06/13 02:43:00;;;;;;;17.60;5.03;;;;;;;11.67;90.55;100006.37;1679368;83;25649;-78
2021/06/13 02:45:28;;;;;;;11.08;4.55;;;;;;;11.66;90.32;100002.14;1699942;83;25716;-78
2021/06/13 02:47:55;;;;;;;11.43;4.13;;;;;;;11.63;90.75;100009.86;1707201;82;26083;-78
2021/06/13 02:50:23;;;;;;;14.58;5.25;;;;;;;11.60;90.43;100009.41;1704051;82;25772;-78
2021/06/13 02:53:13;;;;;;;11.88;5.03;;;;;;;11.59;90.42;100015.62;1706297;83;25168;-78
2021/06/13 02:56:14;;;;;;;9.68;4.20;;;;;;;11.56;90.35;100008.94;1702428;82;25659;-79
2021/06/13 02:58:47;;;;;;;13.50;4.87;;;;;;;11.52;90.44;100016.85;1679070;83;25516;-78
2021/06/13 03:01:20;;;;;;;17.55;5.03;;;;;;;11.50;90.39;100007.86;1705487;82;26230;-79
2021/06/13 03:03:47;;;;;;;13.50;5.70;;;;;;;11.50;90.34;100020.94;1705661;82;25655;-79
2021/06/13 03:06:20;;;;;;;11.03;5.00;;;;;;;11.50;90.18;100015.70;1704348;82;25871;-79
2021/06/13 03:08:48;;;;;;;12.33;4.40;;;;;;;11.49;90.13;100027.18;1697462;82;25792;-79
2021/06/13 03:11:18;;;;;;;8.18;4.15;;;;;;;11.48;90.15;100026.84;1705791;82;25711;-79
2021/06/13 03:13:47;;;;;;;10.98;4.40;;;;;;;11.47;90.00;100038.31;1682316;82;26408;-79
2021/06/13 03:16:15;;;;;;;14.75;4.75;;;;;;;11.47;90.14;100043.55;1697744;83;25240;-78
2021/06/13 03:18:45;;;;;;;7.90;4.40;;;;;;;11.47;90.05;100040.94;1704912;82;25741;-79
2021/06/13 03:21:13;;;;;;;;;;;;;;;11.46;90.21;100044.55;1708745;82;25301;-78
2021/06/13 03:23:41;;;;;;;12.15;4.60;;;;;;;11.47;90.04;100051.41;1707158;82;25665;-78
2021/06/13 03:26:10;;;;;;;10.88;4.75;;;;;;;11.47;90.00;100047.98;1706914;83;25715;-79
2021/06/13 03:28:38;;;;;;;11.30;4.42;;;;;;;11.45;90.07;100046.03;1705796;82;25195;-78
2021/06/13 03:31:06;;;;;;;9.13;4.15;;;;;;;11.43;89.99;100053.23;1681149;83;25705;-79
2021/06/13 03:33:37;;;;;;;12.63;4.47;;;;;;;11.44;90.03;100050.95;1709214;82;25707;-78
2021/06/13 03:36:05;;;;;;;13.10;4.78;;;;;;;11.46;90.10;100055.52;1705347;82;25723;-78
2021/06/13 03:38:33;;;;;;;13.18;4.62;;;;;;;11.47;90.01;100054.52;1698054;83;26107;-78
2021/06/13 03:41:00;;;;;;;12.45;4.97;;;;;;;11.47;89.92;100059.75;1680682;82;26350;-78
2021/06/13 03:43:27;;;;;;;14.25;4.97;;;;;;;11.46;89.86;100060.25;1708291;82;25730;-78
2021/06/13 03:45:53;;;;;;;13.22;4.55;;;;;;;11.47;89.85;100067.61;1710214;81;25486;-79
2021/06/13 03:48:22;;;;;;;10.72;5.15;;;;;;;11.48;89.89;100066.10;1706974;82;25734;-78
2021/06/13 03:50:49;;;;;;;12.82;4.85;;;;;;;11.49;89.80;100068.25;1702863;82;25681;-79
2021/06/13 03:53:15;;;;;;;8.93;4.83;;;;;;;11.49;89.69;100070.87;1704733;82;25250;-79
2021/06/13 03:55:42;;;;;;;13.68;4.75;;;;;;;11.49;89.76;100072.17;1707199;82;25462;-79
2021/06/13 03:58:10;;;;;;;10.20;4.70;;;;;;;11.49;89.71;100079.53;1706791;82;25232;-79
2021/06/13 04:00:37;;;;;;;20.08;4.53;;;;;;;11.51;89.62;100083.25;1701278;82;25807;-78
2021/06/13 04:03:05;;;;;;;9.60;4.50;;;;;;;11.55;89.68;100089.27;1706638;83;25535;-79
2021/06/13 04:05:33;;;;;;;10.60;4.80;;;;;;;11.58;89.84;100093.84;1705470;82;25259;-78
2021/06/13 04:07:59;;;;;;;12.00;4.37;;;;;;;11.59;89.75;100088.41;1707413;82;25223;-79
2021/06/13 04:10:26;;;;;;;8.35;3.70;;;;;;;11.59;89.66;100084.48;1702515;83;25291;-80
2021/06/13 04:12:52;;;;;;;11.35;5.22;;;;;;;11.64;89.75;100087.39;1699216;82;25469;-78
2021/06/13 04:15:21;;;;;;;13.58;4.85;;;;;;;11.70;89.68;100091.09;1700565;82;25489;-79
2021/06/13 04:17:47;;;;;;;14.70;4.50;;;;;;;11.76;89.61;100089.09;1704729;82;26226;-79
2021/06/13 04:20:14;;;;;;;9.83;4.53;;;;;;;11.79;89.42;100091.35;1706880;82;25251;-79
2021/06/13 04:22:42;;;;;;;9.53;4.33;;;;;;;11.86;89.45;100100.63;1705767;83;26421;-79
2021/06/13 04:25:12;;;;;;;11.68;3.95;;;;;;;11.92;89.30;100093.36;1677983;83;25695;-79
2021/06/13 04:27:39;;;;;;;11.97;3.95;;;;;;;11.99;88.89;100091.65;1696883;82;25724;-79
2021/06/13 04:30:08;;;;;;;16.17;4.80;;;;;;;12.04;88.58;100089.80;1705729;82;26298;-78
2021/06/13 04:32:35;;;;;;;10.48;4.40;;;;;;;12.10;88.88;100093.81;1705162;82;25797;-78
2021/06/13 04:35:03;;;;;;;10.55;4.55;;;;;;;12.18;88.42;100102.89;1700189;82;25481;-78
2021/06/13 04:37:28;;;;;;;8.65;4.30;;;;;;;12.21;88.25;100103.02;1705630;82;25177;-78
2021/06/13 04:39:54;;;;;;;12.03;4.47;;;;;;;12.20;88.02;100101.41;1704450;83;25378;-78
2021/06/13 04:42:21;;;;;;;10.50;5.03;;;;;;;12.18;87.97;100098.15;1706731;82;25788;-78
2021/06/13 04:44:47;;;;;;;13.10;4.00;;;;;;;12.13;87.75;100101.30;1713811;82;25476;-78
2021/06/13 04:47:13;;;;;;;9.28;3.70;;;;;;;12.10;88.02;100111.34;1684719;82;25633;-78
2021/06/13 04:49:41;;;;;;;12.33;4.00;;;;;;;12.08;87.97;100114.63;1688054;83;32420;-78
2021/06/13 04:52:09;;;;;;;10.13;3.65;;;;;;;12.04;87.88;100112.88;1689555;83;26369;-78
2021/06/13 04:54:56;;;;;;;8.30;4.00;;;;;;;12.03;88.07;100116.50;1699079;82;25507;-78
2021/06/13 04:57:44;;;;;;;9.48;3.75;;;;;;;12.02;87.97;100123.22;1676336;83;25868;-78
2021/06/13 05:00:10;;;;;;;12.45;5.20;;;;;;;12.02;88.10;100126.64;1686155;84;25214;-78
2021/06/13 05:02:37;;;;;;;11.43;4.42;;;;;;;12.01;88.10;100126.34;1690143;83;26666;-78
2021/06/13 05:05:03;;;;;;;10.65;4.25;;;;;;;12.01;88.16;100123.72;1681235;83;25605;-79
2021/06/13 05:07:31;;;;;;;10.15;3.85;;;;;;;12.03;88.12;100130.08;1688066;84;25658;-78
2021/06/13 05:09:57;;;;;;;10.40;3.90;;;;;;;12.01;88.06;100129.47;1684903;84;25639;-78
2021/06/13 05:12:23;;;;;;;6.50;2.70;;;;;;;11.98;88.10;100134.06;1684342;83;34753;-78
2021/06/13 05:14:48;;;;;;;13.93;4.62;;;;;;;11.96;87.99;100139.16;1686781;83;25189;-79
2021/06/13 05:17:14;;;;;;;14.50;3.97;;;;;;;11.93;88.00;100142.14;1685229;83;26181;-79
2021/06/13 05:19:40;;;;;;;12.53;4.33;;;;;;;11.93;88.21;100129.05;1685882;83;30935;-79
2021/06/13 05:22:07;;;;;;;10.00;4.03;;;;;;;11.89;88.27;100144.78;1683545;83;25784;-78
2021/06/13 05:24:35;;;;;;;7.15;3.75;;;;;;;11.86;88.65;100147.77;1683461;83;25331;-81
2021/06/13 05:27:02;;;;;;;9.63;3.92;;;;;;;11.78;89.02;100141.60;1676193;83;25768;-78
2021/06/13 05:29:30;;;;;;;12.60;3.98;;;;;;;11.76;89.10;100142.27;1683227;82;25637;-78
2021/06/13 05:31:56;;;;;;;9.35;4.28;;;;;;;11.76;89.34;100145.39;1682216;83;25617;-79
2021/06/13 05:34:22;;;;;;;12.73;4.47;;;;;;;11.76;89.79;100148.81;1684034;83;25863;-78
2021/06/13 05:36:48;;;;;;;11.38;4.17;;;;;;;11.77;89.70;100145.19;1684415;83;34732;-78
2021/06/13 05:39:14;;;;;;;9.03;3.62;;;;;;;11.78;89.82;100156.48;1683288;83;32376;-78
2021/06/13 05:41:39;;;;;;;10.60;4.73;;;;;;;11.78;90.06;100153.38;1686751;83;25709;-75
2021/06/13 05:44:05;;;;;;;12.53;4.53;;;;;;;11.76;89.82;100162.41;1686268;83;29972;-76
2021/06/13 05:46:31;;;;;;;17.50;4.90;;;;;;;11.76;89.82;100163.22;1703814;82;27366;-76
2021/06/13 05:48:59;;;;;;;8.40;4.17;;;;;;;11.76;90.12;100166.34;1705802;82;34857;-78
2021/06/13 05:51:25;;;;;;;12.33;4.58;;;;;;;11.76;90.11;100160.59;1703946;82;25850;-78
2021/06/13 05:53:51;;;;;;;12.67;4.47;;;;;;;11.82;90.39;100177.41;1699409;82;25696;-78
2021/06/13 05:56:17;;;;;;;10.80;4.40;;;;;;;11.87;90.58;100172.98;1702201;82;30020;-79
2021/06/13 05:58:43;;;;;;;15.70;4.33;;;;;;;11.92;90.50;100172.77;1705938;82;25729;-79
2021/06/13 06:01:08;;;;;;;8.98;3.70;;;;;;;11.95;90.59;100169.78;1701228;82;35303;-78
2021/06/13 06:03:34;;;;;;;13.95;4.90;;;;;;;12.00;90.55;100171.84;1696535;82;32366;-78
2021/06/13 06:06:00;;;;;;;12.50;3.33;;;;;;;12.07;90.56;100167.53;1704803;82;25915;-76
2021/06/13 06:08:28;;;;;;;13.73;3.87;;;;;;;12.13;90.53;100173.35;1703189;82;29035;-76
2021/06/13 06:10:54;;;;;;;10.95;4.00;;;;;;;12.22;90.07;100175.39;1700944;82;25812;-78
2021/06/13 06:13:20;;;;;;;13.18;4.33;;;;;;;12.26;89.70;100179.79;1701156;82;34725;-78
2021/06/13 06:15:47;;;;;;;12.15;3.90;;;;;;;12.29;89.60;100182.05;1703888;82;33648;-78
2021/06/13 06:18:13;;;;;;;10.88;4.15;;;;;;;12.30;89.47;100177.92;1699098;82;25654;-78
2021/06/13 06:20:39;;;;;;;14.90;4.35;;;;;;;12.38;89.42;100177.02;1701380;82;25661;-78
2021/06/13 06:23:06;;;;;;;13.58;4.05;;;;;;;12.59;89.91;100174.98;1700566;82;25848;-78
2021/06/13 06:25:32;;;;;;;9.58;3.70;;;;;;;12.79;89.41;100185.70;1699875;82;25216;-78
2021/06/13 06:27:58;;;;;;;10.32;4.45;;;;;;;12.95;88.75;100189.42;1700485;82;25217;-78
2021/06/13 06:30:27;;;;;;;12.37;4.53;;;;;;;13.10;88.21;100192.84;1701646;82;25662;-79
2021/06/13 06:32:53;;;;;;;9.55;3.55;;;;;;;13.25;88.11;100186.72;1702847;82;26067;-78
2021/06/13 06:35:19;;;;;;;9.90;4.07;;;;;;;13.36;87.72;100186.76;1701948;82;31280;-79
2021/06/13 06:37:45;;;;;;;11.68;3.62;;;;;;;13.43;86.06;100203.39;1706974;82;25704;-79
2021/06/13 06:40:13;;;;;;;12.85;4.03;;;;;;;13.44;86.42;100204.50;1693144;82;25210;-80
2021/06/13 06:42:41;;;;;;;14.93;4.10;;;;;;;13.48;85.46;100202.34;1702480;82;25616;-81
2021/06/13 06:45:11;;;;;;;12.10;4.60;;;;;;;13.52;85.61;100203.57;1699562;82;25996;-85
2021/06/13 06:47:37;;;;;;;10.88;4.53;;;;;;;13.65;86.07;100197.63;1678646;83;32698;-78
2021/06/13 06:50:05;;;;;;;13.20;3.83;;;;;;;13.81;85.08;100199.99;1679906;83;35279;-78
2021/06/13 06:52:31;;;;;;;10.70;4.42;;;;;;;13.85;84.40;100199.91;1684033;83;25701;-77
2021/06/13 06:54:58;;;;;;;10.38;4.05;;;;;;;13.93;85.08;100201.08;1678328;83;26202;-77
2021/06/13 06:57:24;;;;;;;20.60;5.25;;;;;;;13.98;83.30;100202.64;1682106;83;25249;-76
2021/06/13 06:59:50;;;;;;;11.35;4.12;;;;;;;13.98;84.19;100202.64;1682325;83;30259;-84
2021/06/13 07:02:15;;;;;;;9.10;4.62;;;;;;;14.02;84.44;100199.63;1679769;83;34762;-81
2021/06/13 07:04:41;;;;;;;12.40;4.53;;;;;;;14.06;83.17;100200.38;1691094;83;32948;-82
2021/06/13 07:07:07;;;;;;;11.00;3.92;;;;;;;14.01;82.82;100200.64;1681039;83;25764;-86
2021/06/13 07:09:33;;;;;;;14.53;4.47;;;;;;;13.97;82.98;100207.59;1682059;82;32760;-81
2021/06/13 07:11:59;;;;;;;15.60;4.22;;;;;;;14.03;83.49;100205.22;1680775;83;25943;-80
2021/06/13 07:14:25;;;;;;;9.75;3.55;;;;;;;14.11;83.56;100205.88;1693311;82;34744;-78
2021/06/13 07:16:50;;;;;;;13.28;4.00;;;;;;;14.21;82.08;100216.03;1680900;83;32508;-77
2021/06/13 07:19:16;;;;;;;9.18;3.70;;;;;;;14.20;80.89;100206.53;1683300;83;26031;-81
2021/06/13 07:21:44;;;;;;;12.50;4.28;;;;;;;14.19;79.83;100211.48;1683467;83;32768;-81
2021/06/13 07:24:10;;;;;;;10.98;3.60;;;;;;;14.18;80.98;100215.11;1684084;83;26026;-80
2021/06/13 07:26:35;;;;;;;10.00;3.90;;;;;;;14.26;81.33;100217.59;1682042;83;34856;-79
2021/06/13 07:29:02;;;;;;;12.58;4.15;;;;;;;14.37;81.14;100219.67;1680246;83;32577;-79
2021/06/13 07:31:28;;;;;;;11.73;3.83;;;;;;;14.48;81.06;100228.03;1678535;83;26321;-79
2021/06/13 07:33:54;;;;;;;13.93;5.25;;;;;;;14.46;78.72;100220.36;1677632;83;32748;-81
2021/06/13 07:36:20;;;;;;;11.13;4.13;;;;;;;14.44;79.80;100235.51;1664284;84;29390;-80
2021/06/13 07:38:46;;;;;;;12.70;4.22;;;;;;;14.44;79.35;100230.25;1677788;83;34827;-77
2021/06/13 07:41:11;;;;;;;13.55;3.72;;;;;;;14.45;79.47;100229.23;1677629;83;32294;-80
2021/06/13 07:43:37;;;;;;;15.43;4.47;;;;;;;14.47;78.19;100231.68;1676122;83;26077;-80
2021/06/13 07:46:03;;;;;;;15.05;3.67;;;;;;;14.44;78.47;100244.20;1686864;82;33347;-80
2021/06/13 07:48:32;;;;;;;10.78;4.05;;;;;;;14.46;78.94;100247.13;1691990;82;32020;-80
2021/06/13 07:50:58;;;;;;;10.72;4.33;;;;;;;14.46;78.36;100260.28;1701801;82;25474;-76
2021/06/13 07:53:23;;;;;;;14.80;4.55;;;;;;;14.47;78.12;100256.66;1700650;82;32380;-76
2021/06/13 07:55:49;;;;;;;12.70;4.08;;;;;;;14.46;78.04;100260.28;1700750;82;26027;-78
2021/06/13 07:58:15;;;;;;;11.68;3.95;;;;;;;14.46;77.10;100266.86;1701060;82;33052;-77
2021/06/13 08:00:41;;;;;;;14.35;4.90;;;;;;;14.44;77.16;100264.44;1698438;82;30427;-78
2021/06/13 08:03:07;;;;;;;21.20;6.25;;;;;;;14.43;77.42;100272.00;1673751;82;35103;-77
2021/06/13 08:05:35;;;;;;;11.43;4.10;;;;;;;14.45;77.86;100267.36;1686736;83;25817;-76
2021/06/13 08:08:06;;;;;;;12.18;4.45;;;;;;;14.45;77.92;100273.94;1705724;82;25685;-80
2021/06/13 08:10:33;;;;;;;15.93;4.75;;;;;;;14.48;78.20;100280.13;1705919;82;25631;-85
2021/06/13 08:12:59;;;;;;;8.65;4.20;;;;;;;14.50;77.69;100281.27;1679341;82;26218;-84
2021/06/13 08:15:25;;;;;;;9.75;4.15;;;;;;;14.48;77.08;100283.27;1695768;82;34832;-81
2021/06/13 08:17:51;;;;;;;10.48;4.47;;;;;;;14.44;77.18;100288.91;1700679;82;25581;-79
2021/06/13 08:20:18;;;;;;;13.68;4.47;;;;;;;14.42;77.06;100280.91;1701285;82;25530;-77
2021/06/13 08:22:45;;;;;;;12.70;4.72;;;;;;;14.45;77.52;100277.88;1700531;82;25770;-82
2021/06/13 08:25:12;;;;;;;13.95;4.65;;;;;;;14.52;77.55;100281.89;1702404;82;26171;-77
2021/06/13 08:27:39;;;;;;;10.23;4.20;;;;;;;14.63;78.07;100281.37;1704588;82;25201;-80
2021/06/13 08:30:12;;;;;;;15.78;5.00;;;;;;;14.77;77.35;100283.58;1699797;82;25447;-79
2021/06/13 08:32:40;;;;;;;15.85;5.62;;;;;;;14.89;77.28;100283.33;1704166;82;25746;-75
2021/06/13 08:35:08;;;;;;;14.78;4.40;;;;;;;14.99;76.37;100279.03;1701803;82;25419;-80
2021/06/13 08:37:35;;;;;;;8.95;4.15;;;;;;;15.12;75.95;100277.77;1707010;82;25180;-81
2021/06/13 08:40:02;;;;;;;14.18;4.62;;;;;;;15.22;75.39;100282.66;1703637;82;25233;-81
2021/06/13 08:42:30;;;;;;;10.95;4.20;;;;;;;15.32;76.38;100287.05;1699131;82;25639;-80
2021/06/13 08:44:57;;;;;;;10.55;4.55;;;;;;;15.45;75.30;100293.67;1692364;82;25845;-80
2021/06/13 08:47:24;;;;;;;15.05;4.55;;;;;;;15.43;74.70;100304.91;1693091;82;26280;-79
2021/06/13 08:49:51;;;;;;;12.25;4.58;;;;;;;15.32;75.09;100294.44;1701972;82;26254;-80
2021/06/13 08:52:18;;;;;;;15.15;5.67;;;;;;;15.30;74.62;100285.95;1707026;82;25335;-78
2021/06/13 08:54:44;;;;;;;14.68;5.03;;;;;;;15.28;74.87;100301.13;1704448;82;25241;-79
2021/06/13 08:57:10;;;;;;;20.30;4.97;;;;;;;15.25;74.82;100304.16;1701295;82;25678;-79
2021/06/13 08:59:37;;;;;;;14.60;4.90;;;;;;;15.26;75.33;100313.67;1703207;82;25744;-79
2021/06/13 09:02:05;;;;;;;14.53;4.90;;;;;;;15.27;74.87;100314.48;1701605;82;25563;-80
2021/06/13 09:04:31;;;;;;;10.48;4.47;;;;;;;15.26;74.37;100307.09;1704206;82;25388;-76
2021/06/13 09:06:57;;;;;;;12.75;5.25;;;;;;;15.26;74.69;100318.94;1694405;82;25874;-77
2021/06/13 09:09:26;;;;;;;18.52;4.00;;;;;;;15.24;74.48;100328.04;1701080;82;25504;-77
2021/06/13 09:12:02;;;;;;;14.87;5.42;;;;;;;15.22;74.66;100328.73;1698888;82;25677;-77
2021/06/13 09:14:31;;;;;;;9.15;4.20;;;;;;;15.17;74.48;100333.77;1705454;82;25749;-79
2021/06/13 09:16:56;;;;;;;8.98;3.85;;;;;;;15.14;75.17;100342.06;1700745;82;26410;-80
2021/06/13 09:19:23;;;;;;;17.17;5.05;;;;;;;15.16;75.53;100335.59;1697003;82;32419;-79
2021/06/13 09:21:49;;;;;;;12.93;5.10;;;;;;;15.20;75.79;100327.63;1705610;82;26097;-79
2021/06/13 09:24:26;;;;;;;9.53;4.37;;;;;;;15.23;75.85;100333.81;1705471;82;26548;-80
2021/06/13 09:26:55;;;;;;;12.30;3.70;;;;;;;15.26;75.63;100337.38;1704424;83;25724;-80
2021/06/13 09:29:21;;;;;;;9.65;3.95;;;;;;;15.27;75.04;100350.83;1706808;82;25744;-82
2021/06/13 09:32:01;;;;;;;13.93;4.37;;;;;;;15.27;75.25;100356.09;1699479;83;25773;-82
2021/06/13 09:34:27;;;;;;;14.07;4.57;;;;;;;15.28;75.26;100356.43;1696405;83;25666;-75
2021/06/13 09:36:58;;;;;;;15.32;4.62;;;;;;;15.26;75.21;100355.00;1707107;83;25614;-76
2021/06/13 09:39:26;;;;;;;13.78;5.00;;;;;;;15.24;75.22;100361.77;1703872;83;25770;-76
2021/06/13 09:41:52;;;;;;;10.28;4.67;;;;;;;15.22;75.36;100361.16;1704986;82;25726;-75
2021/06/13 09:44:18;;;;;;;14.65;5.10;;;;;;;15.25;75.49;100365.20;1706324;82;32321;-83
2021/06/13 09:46:51;;;;;;;14.23;4.97;;;;;;;15.25;75.07;100370.47;1706976;82;26307;-84
2021/06/13 09:49:19;;;;;;;14.10;3.83;;;;;;;15.28;75.49;100368.79;1705004;82;25678;-82
2021/06/13 09:51:56;;;;;;;18.05;4.65;;;;;;;15.32;75.32;100368.18;1700173;82;26103;-84
2021/06/13 09:54:27;;;;;;;10.35;3.92;;;;;;;15.36;75.18;100375.20;1682214;83;25645;-82
2021/06/13 09:56:56;;;;;;;9.28;3.95;;;;;;;15.39;74.65;100373.49;1695571;82;25228;-82
2021/06/13 09:59:32;;;;;;;13.35;4.53;;;;;;;15.43;75.07;100376.03;1704176;82;25766;-80
2021/06/13 10:02:06;;;;;;;10.63;4.17;;;;;;;15.46;73.78;100378.27;1682586;83;25239;-82
2021/06/13 10:04:40;;;;;;;12.90;4.08;;;;;;;15.49;73.84;100381.02;1706662;82;25994;-82
2021/06/13 10:07:21;;;;;;;13.85;4.03;;;;;;;15.60;73.77;100379.64;1700177;82;25827;-81
2021/06/13 10:09:52;;;;;;;13.78;4.08;;;;;;;15.74;74.28;100378.70;1704332;82;26119;-82
2021/06/13 10:12:20;;;;;;;11.93;4.00;;;;;;;15.94;74.29;100382.21;1704351;82;25686;-82
2021/06/13 10:14:48;;;;;;;11.10;3.85;;;;;;;16.00;72.39;100382.42;1705736;82;25442;-83
2021/06/13 10:17:15;;;;;;;14.15;3.92;;;;;;;16.01;72.96;100379.58;1702560;82;25651;-82
2021/06/13 10:19:47;;;;;;;10.90;4.35;;;;;;;16.02;72.72;100385.17;1705139;82;25196;-82
2021/06/13 10:22:17;;;;;;;9.93;3.87;;;;;;;16.04;73.00;100394.19;1706277;82;25694;-82
2021/06/13 10:24:46;;;;;;;12.95;3.42;;;;;;;16.01;72.59;100381.41;1709261;82;25690;-82
2021/06/13 10:27:20;;;;;;;12.05;3.98;;;;;;;15.98;72.42;100390.52;1706301;82;25788;-77
2021/06/13 10:29:50;;;;;;;13.70;4.53;;;;;;;15.93;72.55;100392.45;1705129;82;25571;-76
2021/06/13 10:32:22;;;;;;;10.25;3.83;;;;;;;15.87;72.44;100395.87;1706752;82;25445;-82
2021/06/13 10:34:49;;;;;;;11.38;4.25;;;;;;;15.83;72.77;100404.39;1707082;83;25209;-82
2021/06/13 10:37:14;;;;;;;9.78;3.85;;;;;;;15.76;73.17;100409.11;1708494;82;25614;-82
2021/06/13 10:39:42;;;;;;;11.35;4.05;;;;;;;15.67;73.45;100401.56;1705956;82;32824;-82
2021/06/13 10:42:15;;;;;;;12.18;3.90;;;;;;;15.65;73.81;100402.26;1709386;82;25195;-82
2021/06/13 10:44:56;;;;;;;10.93;3.60;;;;;;;15.63;73.55;100397.69;1705082;82;25613;-82
2021/06/13 10:47:22;;;;;;;14.58;4.05;;;;;;;15.61;73.16;100405.80;1693616;82;25656;-80
2021/06/13 10:50:08;;;;;;;12.50;3.62;;;;;;;15.62;73.45;100398.70;1672909;83;25746;-81
2021/06/13 10:52:35;;;;;;;10.08;3.98;;;;;;;15.63;73.62;100409.06;1680282;83;25359;-81
2021/06/13 10:55:05;;;;;;;17.70;4.10;;;;;;;15.65;72.64;100408.34;1676948;83;25739;-81
2021/06/13 10:57:44;;;;;;;;;;;;;;;15.67;72.44;100408.16;1685211;83;25226;-80
2021/06/13 11:00:28;;;;;;;10.58;4.15;;;;;;;15.72;72.89;100408.41;1682459;83;26331;-81
2021/06/13 11:03:00;;;;;;;14.35;3.92;;;;;;;15.76;72.45;100420.97;1681701;83;25705;-81
2021/06/13 11:05:46;;;;;;;8.05;3.50;;;;;;;15.81;72.63;100406.41;1664550;83;25687;-81
2021/06/13 11:08:13;;;;;;;10.45;3.62;;;;;;;15.84;72.11;100417.86;1682635;83;26073;-80
2021/06/13 11:10:40;;;;;;;11.35;3.35;;;;;;;15.91;72.39;100415.56;1672591;83;25774;-81
2021/06/13 11:13:14;;;;;;;9.30;3.47;;;;;;;15.98;72.32;100412.93;1677011;83;25220;-81
2021/06/13 11:15:47;;;;;;;8.90;3.12;;;;;;;16.05;72.07;100404.54;1683671;83;25682;-81
2021/06/13 11:18:26;;;;;;;12.70;3.40;;;;;;;16.16;72.02;100410.55;1681443;83;25625;-82
2021/06/13 11:21:09;;;;;;;9.63;2.95;;;;;;;16.28;71.28;100412.07;1678196;83;25648;-83
2021/06/13 11:23:40;;;;;;;10.60;3.17;;;;;;;16.42;70.81;100415.05;1674533;83;25675;-82
2021/06/13 11:26:10;;;;;;;8.78;3.05;;;;;;;16.55;70.51;100408.14;1677369;83;25140;-82
2021/06/13 11:28:45;;;;;;;10.75;3.10;;;;;;;16.63;69.36;100404.78;1671135;83;25712;-83
2021/06/13 11:31:24;;;;;;;9.25;4.08;;;;;;;16.66;69.71;100411.48;1677048;83;26191;-82